createdAt,value
2022-11-17T00:01:41.796Z,4.20
2022-11-17T00:04:30.255Z,4.38
2022-11-17T00:07:15.842Z,4.43
2022-11-17T00:10:01.391Z,4.30
2022-11-17T00:13:05.396Z,3.95
2022-11-17T00:15:50.928Z,4.43
2022-11-17T00:18:54.734Z,3.90
2022-11-17T00:21:40.290Z,3.75
2022-11-17T00:24:25.561Z,4.05
2022-11-17T00:27:11.505Z,3.88
2022-11-17T00:29:56.985Z,3.90
2022-11-17T00:33:00.721Z,4.65
2022-11-17T00:35:51.556Z,4.15
2022-11-17T00:38:36.712Z,4.00
2022-11-17T00:41:22.143Z,5.07
2022-11-17T00:44:08.258Z,5.07
2022-11-17T00:46:53.435Z,5.10
2022-11-17T00:49:38.976Z,6.07
2022-11-17T00:52:24.020Z,4.97
2022-11-17T00:55:09.630Z,5.68
2022-11-17T00:57:55.259Z,4.97
2022-11-17T01:00:40.898Z,5.75
2022-11-17T01:03:26.553Z,5.18
2022-11-17T01:06:16.968Z,5.40
2022-11-17T01:09:07.336Z,6.00
2022-11-17T01:11:53.923Z,6.15
2022-11-17T01:14:39.404Z,6.90
2022-11-17T01:17:24.942Z,7.25
2022-11-17T01:20:10.659Z,6.78
2022-11-17T01:22:56.122Z,6.85
2022-11-17T01:25:41.355Z,6.97
2022-11-17T01:28:26.857Z,6.35
2022-11-17T01:31:18.497Z,6.30
2022-11-17T01:34:04.084Z,6.30
2022-11-17T01:37:08.195Z,7.18
2022-11-17T01:39:53.577Z,6.90
2022-11-17T01:42:39.023Z,6.20
2022-11-17T01:45:26.708Z,5.85
2022-11-17T01:48:15.112Z,5.45
2022-11-17T01:51:00.786Z,6.00
2022-11-17T01:53:50.418Z,5.32
2022-11-17T01:56:40.263Z,5.45
2022-11-17T01:59:36.495Z,5.60
2022-11-17T02:02:22.315Z,5.30
2022-11-17T02:05:20.022Z,4.80
2022-11-17T02:08:06.904Z,4.40
2022-11-17T02:10:53.170Z,4.55
2022-11-17T02:13:39.892Z,4.00
2022-11-17T02:16:25.250Z,3.70
2022-11-17T02:19:15.069Z,3.83
2022-11-17T02:22:18.351Z,3.63
2022-11-17T02:25:31.723Z,3.95
2022-11-17T02:28:40.795Z,3.72
2022-11-17T02:31:37.161Z,3.40
2022-11-17T02:34:38.399Z,3.90
2022-11-17T02:37:53.541Z,4.03
2022-11-17T02:40:52.776Z,3.92
2022-11-17T02:44:06.272Z,3.70
2022-11-17T02:46:57.936Z,4.10
2022-11-17T02:49:53.565Z,3.50
2022-11-17T02:52:38.910Z,3.53
2022-11-17T02:55:24.579Z,3.67
2022-11-17T02:58:12.317Z,3.55
2022-11-17T03:01:22.184Z,4.00
2022-11-17T03:04:37.809Z,3.38
2022-11-17T03:07:54.354Z,3.28
2022-11-17T03:10:59.450Z,3.33
2022-11-17T03:13:51.837Z,3.25
2022-11-17T03:19:54.526Z,3.40
2022-11-17T03:22:54.767Z,3.30
2022-11-17T03:25:45.410Z,3.50
2022-11-17T03:28:33.023Z,3.13
2022-11-17T03:31:20.770Z,3.05
2022-11-17T03:34:12.016Z,3.30
2022-11-17T03:37:02.208Z,2.72
2022-11-17T03:39:52.589Z,2.90
2022-11-17T03:42:41.883Z,3.13
2022-11-17T03:45:34.821Z,2.88
2022-11-17T03:48:35.624Z,2.65
2022-11-17T03:51:25.304Z,2.88
2022-11-17T03:54:11.097Z,2.85
2022-11-17T03:57:41.734Z,2.42
2022-11-17T04:00:27.291Z,2.38
2022-11-17T04:03:12.758Z,2.30
2022-11-17T04:05:58.458Z,2.10
2022-11-17T04:08:43.990Z,1.90
2022-11-17T04:11:47.898Z,1.85
2022-11-17T04:14:51.691Z,1.90
2022-11-17T04:17:37.084Z,2.25
2022-11-17T04:20:22.390Z,2.05
2022-11-17T04:23:14.152Z,1.98
2022-11-17T04:26:18.015Z,2.10
2022-11-17T04:29:03.522Z,2.35
2022-11-17T04:31:48.682Z,1.80
2022-11-17T04:34:34.398Z,1.80
2022-11-17T04:37:19.865Z,2.00
2022-11-17T04:40:06.140Z,2.03
2022-11-17T04:42:51.661Z,2.42
2022-11-17T04:45:37.683Z,2.00
2022-11-17T04:48:23.053Z,1.83
2022-11-17T04:51:08.622Z,1.65
2022-11-17T04:53:54.335Z,2.00
2022-11-17T04:56:40.236Z,1.67
2022-11-17T04:59:25.692Z,1.60
2022-11-17T05:02:10.995Z,1.85
2022-11-17T05:04:56.158Z,1.55
2022-11-17T05:07:41.523Z,1.70
2022-11-17T05:10:45.496Z,1.92
2022-11-17T05:13:30.991Z,2.10
2022-11-17T05:16:35.439Z,2.03
2022-11-17T05:19:23.527Z,1.90
2022-11-17T05:22:29.023Z,2.03
2022-11-17T05:25:14.623Z,2.20
2022-11-17T05:28:00.240Z,2.58
2022-11-17T05:30:45.681Z,2.75
2022-11-17T05:33:36.431Z,2.50
2022-11-17T05:36:24.873Z,2.60
2022-11-17T05:39:10.649Z,2.85
2022-11-17T05:41:57.148Z,2.88
2022-11-17T05:44:42.884Z,2.80
2022-11-17T05:47:28.246Z,2.47
2022-11-17T05:50:13.520Z,2.50
2022-11-17T05:52:59.460Z,2.30
2022-11-17T05:55:44.744Z,2.90
2022-11-17T05:58:33.548Z,2.85
2022-11-17T06:01:20.439Z,3.00
2022-11-17T06:04:07.455Z,3.13
2022-11-17T06:06:54.300Z,3.33
2022-11-17T06:09:41.938Z,3.50
2022-11-17T06:12:27.587Z,3.90
2022-11-17T06:15:13.604Z,3.70
2022-11-17T06:18:20.363Z,4.20
2022-11-17T06:21:07.891Z,3.80
2022-11-17T06:23:53.136Z,3.60
2022-11-17T06:26:40.857Z,3.50
2022-11-17T06:29:28.532Z,3.78
2022-11-17T06:32:15.648Z,3.40
2022-11-17T06:35:03.187Z,3.30
2022-11-17T06:37:48.708Z,3.50
2022-11-17T06:40:34.231Z,3.50
2022-11-17T06:43:19.749Z,2.70
2022-11-17T06:46:05.890Z,2.53
2022-11-17T06:48:54.383Z,2.15
2022-11-17T06:51:44.800Z,1.90
2022-11-17T06:54:30.649Z,1.90
2022-11-17T06:57:16.529Z,2.03
2022-11-17T07:00:01.830Z,1.52
2022-11-17T07:02:47.067Z,2.00
2022-11-17T07:05:33.984Z,1.75
2022-11-17T07:08:22.208Z,1.90
2022-11-17T07:11:10.146Z,1.67
2022-11-17T07:13:56.811Z,1.77
2022-11-17T07:16:43.223Z,1.73
2022-11-17T07:19:28.679Z,1.70
2022-11-17T07:22:14.116Z,1.90
2022-11-17T07:24:59.643Z,1.83
2022-11-17T07:27:45.446Z,1.90
2022-11-17T07:30:30.742Z,2.20
2022-11-17T07:33:16.150Z,2.28
2022-11-17T07:36:11.032Z,2.22
2022-11-17T07:38:56.846Z,2.55
2022-11-17T07:41:42.177Z,2.40
2022-11-17T07:44:27.743Z,3.08
2022-11-17T07:47:13.291Z,3.20
2022-11-17T07:49:58.896Z,3.17
2022-11-17T07:52:44.429Z,3.03
2022-11-17T07:55:30.042Z,3.35
2022-11-17T07:58:15.478Z,2.80
2022-11-17T08:01:11.876Z,2.50
2022-11-17T08:03:58.414Z,2.10
2022-11-17T08:06:43.571Z,2.13
2022-11-17T08:09:28.923Z,2.50
2022-11-17T08:12:14.425Z,1.90
2022-11-17T08:14:59.973Z,2.20
2022-11-17T08:17:45.478Z,2.28
2022-11-17T08:20:30.985Z,2.20
2022-11-17T08:23:16.742Z,2.47
2022-11-17T08:26:03.581Z,2.63
2022-11-17T08:28:52.312Z,2.30
2022-11-17T08:31:46.006Z,2.30
2022-11-17T08:34:31.308Z,2.10
2022-11-17T08:37:16.763Z,1.88
2022-11-17T08:40:02.262Z,2.60
2022-11-17T08:42:57.504Z,2.05
2022-11-17T08:45:46.134Z,2.28
2022-11-17T08:48:32.484Z,2.40
2022-11-17T08:51:17.926Z,2.20
2022-11-17T08:54:03.322Z,2.30
2022-11-17T08:56:48.933Z,2.17
2022-11-17T08:59:34.250Z,1.90
2022-11-17T09:02:19.978Z,2.00
2022-11-17T09:05:05.914Z,2.13
2022-11-17T09:07:52.018Z,2.00
2022-11-17T09:10:38.325Z,1.80
2022-11-17T09:13:23.467Z,2.10
2022-11-17T09:16:10.904Z,2.10
2022-11-17T09:18:59.776Z,1.83
2022-11-17T09:21:45.052Z,1.70
2022-11-17T09:24:30.652Z,2.05
2022-11-17T09:27:16.003Z,1.67
2022-11-17T09:30:01.618Z,1.58
2022-11-17T09:32:47.469Z,1.70
2022-11-17T09:35:32.921Z,1.65
2022-11-17T09:38:18.402Z,1.50
2022-11-17T09:41:41.299Z,1.63
2022-11-17T09:44:41.622Z,1.65
2022-11-17T09:47:46.158Z,1.30
2022-11-17T09:50:37.066Z,1.33
2022-11-17T09:53:30.842Z,1.80
2022-11-17T09:56:17.259Z,1.60
2022-11-17T09:59:05.078Z,1.60
2022-11-17T10:01:50.806Z,1.40
2022-11-17T10:04:35.786Z,1.40
2022-11-17T10:07:22.173Z,1.42
2022-11-17T10:10:16.202Z,1.50
2022-11-17T10:13:04.970Z,1.50
2022-11-17T10:15:54.890Z,1.38
2022-11-17T10:18:40.250Z,1.50
2022-11-17T10:21:29.640Z,1.20
2022-11-17T10:24:34.715Z,1.30
2022-11-17T10:27:24.554Z,1.10
2022-11-17T10:30:24.118Z,1.25
2022-11-17T10:33:13.503Z,1.40
2022-11-17T10:35:59.229Z,1.50
2022-11-17T10:38:46.825Z,1.50
2022-11-17T10:41:41.851Z,1.30
2022-11-17T10:44:30.538Z,1.58
2022-11-17T10:47:31.871Z,1.88
2022-11-17T10:50:27.517Z,1.73
2022-11-17T10:53:45.755Z,1.23
2022-11-17T10:56:39.334Z,1.65
2022-11-17T11:02:34.734Z,1.60
2022-11-17T11:05:21.290Z,1.45
2022-11-17T11:08:21.988Z,1.60
2022-11-17T11:11:18.165Z,1.95
2022-11-17T11:14:37.831Z,1.65
2022-11-17T11:17:22.965Z,1.55
2022-11-17T11:20:14.370Z,1.92
2022-11-17T11:23:14.243Z,2.28
2022-11-17T11:26:34.802Z,2.17
2022-11-17T11:29:45.815Z,1.90
2022-11-17T11:32:41.140Z,2.00
2022-11-17T11:36:08.051Z,1.45
2022-11-17T11:39:17.933Z,2.28
2022-11-17T11:42:28.956Z,1.90
2022-11-17T11:45:18.038Z,2.00
2022-11-17T11:48:09.450Z,1.75
2022-11-17T11:51:25.946Z,1.55
2022-11-17T11:54:27.929Z,1.60
2022-11-17T11:57:16.721Z,1.40
2022-11-17T12:00:13.441Z,1.50
2022-11-17T12:03:28.636Z,1.45
2022-11-17T12:06:42.190Z,1.65
2022-11-17T12:09:43.644Z,1.80
2022-11-17T12:12:32.987Z,1.80
2022-11-17T12:15:18.791Z,1.20
2022-11-17T12:18:11.408Z,1.45
2022-11-17T12:21:11.142Z,1.30
2022-11-17T12:24:14.914Z,1.50
2022-11-17T12:27:31.673Z,1.25
2022-11-17T12:30:38.265Z,1.52
2022-11-17T12:33:24.004Z,1.55
2022-11-17T12:36:30.149Z,1.40
2022-11-17T12:39:54.155Z,1.80
2022-11-17T12:45:53.633Z,1.83
2022-11-17T12:48:44.407Z,1.75
2022-11-17T12:51:52.304Z,1.60
2022-11-17T12:54:54.627Z,1.60
2022-11-17T12:57:41.477Z,1.83
2022-11-17T13:00:34.671Z,1.88
2022-11-17T13:03:41.463Z,1.70
2022-11-17T13:06:35.990Z,1.80
2022-11-17T13:09:26.827Z,1.75
2022-11-17T13:12:12.127Z,1.50
2022-11-17T13:15:00.604Z,1.67
2022-11-17T13:17:46.082Z,1.83
2022-11-17T13:20:31.538Z,1.60
2022-11-17T13:23:26.097Z,1.85
2022-11-17T13:26:20.613Z,1.30
2022-11-17T13:29:15.043Z,1.60
2022-11-17T13:32:16.846Z,1.50
2022-11-17T13:35:02.447Z,1.90
2022-11-17T13:38:02.315Z,1.75
2022-11-17T13:40:50.338Z,1.45
2022-11-17T13:43:39.302Z,1.30
2022-11-17T13:46:24.626Z,1.30
2022-11-17T13:49:34.790Z,1.52
2022-11-17T13:52:42.029Z,1.70
2022-11-17T13:55:31.902Z,1.80
2022-11-17T13:58:41.091Z,1.80
2022-11-17T14:01:29.516Z,1.80
2022-11-17T14:04:23.729Z,1.55
2022-11-17T14:07:12.008Z,1.60
2022-11-17T14:10:22.513Z,1.45
2022-11-17T14:13:23.111Z,1.83
2022-11-17T14:16:22.331Z,1.50
2022-11-17T14:19:16.755Z,1.50
2022-11-17T14:22:09.805Z,1.48
2022-11-17T14:24:54.951Z,1.33
2022-11-17T14:27:40.424Z,1.30
2022-11-17T14:30:26.407Z,1.70
2022-11-17T14:33:13.754Z,1.88
2022-11-17T14:36:00.229Z,1.90
2022-11-17T14:38:46.751Z,2.08
2022-11-17T14:41:32.139Z,2.35
2022-11-17T14:44:17.797Z,1.88
2022-11-17T14:47:03.506Z,2.00
2022-11-17T14:49:48.868Z,2.30
2022-11-17T14:52:34.115Z,2.03
2022-11-17T14:55:21.900Z,2.00
2022-11-17T14:58:07.108Z,2.03
2022-11-17T15:00:52.690Z,2.30
2022-11-17T15:03:38.091Z,1.90
2022-11-17T15:06:25.262Z,1.85
2022-11-17T15:09:15.708Z,1.90
2022-11-17T15:12:00.982Z,2.13
2022-11-17T15:14:49.674Z,1.75
2022-11-17T15:17:35.095Z,1.48
2022-11-17T15:20:20.539Z,1.70
2022-11-17T15:23:06.089Z,1.65
2022-11-17T15:25:51.622Z,1.70
2022-11-17T15:28:37.217Z,1.65
2022-11-17T15:31:22.278Z,1.40
2022-11-17T15:34:09.676Z,1.50
2022-11-17T15:36:55.322Z,1.42
2022-11-17T15:39:41.068Z,1.45
2022-11-17T15:42:26.246Z,1.33
2022-11-17T15:45:11.758Z,1.20
2022-11-17T15:47:58.827Z,1.38
2022-11-17T15:50:44.317Z,1.10
2022-11-17T15:53:32.101Z,1.45
2022-11-17T15:56:19.797Z,1.50
2022-11-17T15:59:06.038Z,1.17
2022-11-17T16:01:51.459Z,1.27
2022-11-17T16:04:36.805Z,1.50
2022-11-17T16:07:22.410Z,1.20
2022-11-17T16:10:07.997Z,1.42
2022-11-17T16:12:53.459Z,1.30
2022-11-17T16:15:38.922Z,1.20
2022-11-17T16:18:24.578Z,1.10
2022-11-17T16:21:12.406Z,1.00
2022-11-17T16:23:57.791Z,1.30
2022-11-17T16:26:44.779Z,1.45
2022-11-17T16:29:30.598Z,1.25
2022-11-17T16:32:15.883Z,1.40
2022-11-17T16:35:01.559Z,1.35
2022-11-17T16:37:50.457Z,1.30
2022-11-17T16:40:37.827Z,1.63
2022-11-17T16:43:23.355Z,1.10
2022-11-17T16:46:20.982Z,1.30
2022-11-17T16:49:08.007Z,1.23
2022-11-17T16:51:53.936Z,1.30
2022-11-17T16:54:39.619Z,1.20
2022-11-17T16:57:24.854Z,1.70
2022-11-17T17:00:11.490Z,1.30
2022-11-17T17:02:57.214Z,1.50
2022-11-17T17:05:42.521Z,1.45
2022-11-17T17:08:28.072Z,1.40
2022-11-17T17:11:15.816Z,1.30
2022-11-17T17:14:04.285Z,1.30
2022-11-17T17:16:49.550Z,1.35
2022-11-17T17:19:34.959Z,1.30
2022-11-17T17:22:20.451Z,1.00
2022-11-17T17:25:06.752Z,1.50
2022-11-17T17:27:51.799Z,1.23
2022-11-17T17:30:37.435Z,1.42
2022-11-17T17:33:22.820Z,1.58
2022-11-17T17:36:14.894Z,1.35
2022-11-17T17:39:01.932Z,1.13
2022-11-17T17:41:47.096Z,1.60
2022-11-17T17:44:32.326Z,1.23
2022-11-17T17:47:17.828Z,1.50
2022-11-17T17:50:03.424Z,1.23
2022-11-17T17:52:48.877Z,1.50
2022-11-17T17:55:35.084Z,1.25
2022-11-17T17:58:20.490Z,1.65
2022-11-17T18:01:11.934Z,1.38
2022-11-17T18:04:04.557Z,1.55
2022-11-17T18:06:51.076Z,1.40
2022-11-17T18:09:36.746Z,1.15
2022-11-17T18:12:22.186Z,1.20
2022-11-17T18:15:09.610Z,1.55
2022-11-17T18:17:54.598Z,1.10
2022-11-17T18:20:40.087Z,1.30
2022-11-17T18:23:28.739Z,1.38
2022-11-17T18:26:16.953Z,1.15
2022-11-17T18:29:08.035Z,1.23
2022-11-17T18:31:53.306Z,1.25
2022-11-17T18:34:38.936Z,1.42
2022-11-17T18:37:24.411Z,1.50
2022-11-17T18:40:11.590Z,1.42
2022-11-17T18:43:01.277Z,1.80
2022-11-17T18:45:46.732Z,1.85
2022-11-17T18:48:33.670Z,1.38
2022-11-17T18:51:21.638Z,1.52
2022-11-17T18:54:07.897Z,1.40
2022-11-17T18:56:53.133Z,1.30
2022-11-17T18:59:38.902Z,1.20
2022-11-17T19:02:24.316Z,1.73
2022-11-17T19:05:10.048Z,1.55
2022-11-17T19:07:57.211Z,1.75
2022-11-17T19:10:51.547Z,1.20
2022-11-17T19:13:39.373Z,1.25
2022-11-17T19:16:26.358Z,1.10
2022-11-17T19:19:13.367Z,1.13
2022-11-17T19:21:59.276Z,1.30
2022-11-17T19:24:44.518Z,1.50
2022-11-17T19:27:29.854Z,1.60
2022-11-17T19:30:15.626Z,1.15
2022-11-17T19:33:01.077Z,1.30
2022-11-17T19:35:46.563Z,1.50
2022-11-17T19:38:33.835Z,1.60
2022-11-17T19:41:22.045Z,1.63
2022-11-17T19:44:08.852Z,1.40
2022-11-17T19:46:54.310Z,2.08
2022-11-17T19:49:39.921Z,2.30
2022-11-17T19:52:27.027Z,2.33
2022-11-17T19:55:12.382Z,2.33
2022-11-17T19:57:57.871Z,1.75
2022-11-17T20:00:45.305Z,1.80
2022-11-17T20:03:30.998Z,2.10
2022-11-17T20:06:19.158Z,2.13
2022-11-17T20:09:09.518Z,2.30
2022-11-17T20:11:54.860Z,1.98
2022-11-17T20:14:40.337Z,2.50
2022-11-17T20:17:25.814Z,1.70
2022-11-17T20:20:11.794Z,2.00
2022-11-17T20:22:57.190Z,2.10
2022-11-17T20:25:42.577Z,1.90
2022-11-17T20:28:30.889Z,2.08
2022-11-17T20:31:24.493Z,1.85
2022-11-17T20:34:12.696Z,2.10
2022-11-17T20:36:58.087Z,3.92
2022-11-17T20:39:43.582Z,3.22
2022-11-17T20:42:29.055Z,2.40
2022-11-17T20:45:14.610Z,2.53
2022-11-17T20:47:59.955Z,2.13
2022-11-17T20:50:56.464Z,2.28
2022-11-17T20:53:42.109Z,2.53
2022-11-17T20:56:27.301Z,2.25
2022-11-17T20:59:18.545Z,2.10
2022-11-17T21:04:50.418Z,1.65
2022-11-17T21:07:35.671Z,2.08
2022-11-17T21:10:21.131Z,1.77
2022-11-17T21:13:06.548Z,2.05
2022-11-17T21:16:14.705Z,1.60
2022-11-17T21:19:00.113Z,1.60
2022-11-17T21:21:45.887Z,1.48
2022-11-17T21:24:31.205Z,1.63
2022-11-17T21:27:19.909Z,1.70
2022-11-17T21:30:05.382Z,1.30
2022-11-17T21:32:50.784Z,1.45
2022-11-17T21:35:36.186Z,1.73
2022-11-17T21:38:21.551Z,1.65
2022-11-17T21:41:10.721Z,1.75
2022-11-17T21:43:59.372Z,1.33
2022-11-17T21:46:44.666Z,1.50
2022-11-17T21:49:30.820Z,1.75
2022-11-17T21:52:16.140Z,1.58
2022-11-17T21:55:01.394Z,1.40
2022-11-17T21:57:50.668Z,1.95
2022-11-17T22:00:36.162Z,1.30
2022-11-17T22:03:21.711Z,1.60
2022-11-17T22:06:11.352Z,1.73
2022-11-17T22:08:59.117Z,1.77
2022-11-17T22:11:44.477Z,1.55
2022-11-17T22:14:29.845Z,1.50
2022-11-17T22:17:15.363Z,1.63
2022-11-17T22:20:00.773Z,1.60
2022-11-17T22:22:47.618Z,1.80
2022-11-17T22:25:45.142Z,1.50
2022-11-17T22:28:31.347Z,1.63
2022-11-17T22:31:16.735Z,1.90
2022-11-17T22:34:02.524Z,1.65
2022-11-17T22:36:47.902Z,1.83
2022-11-17T22:39:33.218Z,1.73
2022-11-17T22:42:18.801Z,2.15
2022-11-17T22:45:03.975Z,1.90
2022-11-17T22:47:49.442Z,1.80
2022-11-17T22:50:36.172Z,2.28
2022-11-17T22:53:21.538Z,2.00
2022-11-17T22:56:08.081Z,2.13
2022-11-17T22:58:58.379Z,2.00
2022-11-17T23:01:45.249Z,2.00
2022-11-17T23:04:31.144Z,2.03
2022-11-17T23:07:16.496Z,2.30
2022-11-17T23:10:01.822Z,2.17
2022-11-17T23:12:47.294Z,2.30
2022-11-17T23:15:32.575Z,2.10
2022-11-17T23:18:17.954Z,2.22
2022-11-17T23:21:05.757Z,1.90
2022-11-17T23:23:51.130Z,2.08
2022-11-17T23:26:36.567Z,2.10
2022-11-17T23:29:21.998Z,2.45
2022-11-17T23:32:07.293Z,2.17
2022-11-17T23:34:52.879Z,2.30
2022-11-17T23:37:38.343Z,2.40
2022-11-17T23:40:24.837Z,2.60
2022-11-17T23:43:10.045Z,2.40
2022-11-17T23:45:56.361Z,3.72
2022-11-17T23:48:42.638Z,3.22
2022-11-17T23:51:29.760Z,3.13
2022-11-17T23:54:15.178Z,3.80
2022-11-17T23:57:01.255Z,3.55
2022-11-17T23:59:46.686Z,3.15
